MMZOMMPR

Guest
Details From MMZO - PLAYA DE ORO INTL
To MMPR - LICENCIADO GUSTAVO DIAZ ORDAZ INTL
Flight Number -
Tags generated
Created
Modified
Stats Distance 100 nm / 186 km
Max Altitude 10,800 ft / 3,292 m
Waypoints 4
Social Downloads 0
Likes 0
Share VATSIM

Download

Looking for another format? Having issues loading an existing format? Contact us
Advertisement - Login to hide

Notes

Basic altitude profile: - Ascent Rate: 2500ft/min - Ascent Speed: 250kts - Cruise Altitude: 35000ft - Cruise Speed: 420kts - Descent Rate: 1500ft/min - Descent Speed: 250kts Options: - Use NATs: yes - Use PACOTS: yes - Use low airways: yes - Use high airways: yes

Route

MMZO MAREX V1 PVR MMPR

ID Type Via Altitude Latitude Longitude Leg Dist Tot Dist Heading (true) Name
O MMZO APT - 0 ft / 0 m 19.14478˚ -104.55863˚ - 0 nm - PLAYA DE ORO INTL
MAREX FIX - 10,800 ft / 3,292 m 19.90602˚ -104.91031˚ 49 nm 49 nm 337° / 336° -
PVR VOR V1 (AWY-LO) 10,000 ft / 3,048 m 20.67309˚ -105.25750˚ 50 nm 99 nm 337° / 337° VALLARTA VOR-DME
O MMPR APT - 0 ft / 0 m 20.68007˚ -105.25415˚ 0 nm 100 nm 24° / 24° LICENCIADO GUSTAVO DIAZ ORDAZ INTL

Altitude Profile

Advertisement - Login to hide

MMZO

Details ICAO MMZO (ZLO)
Name PLAYA DE ORO INTL
Region Mexico
Timezone America/Mexico_City (UTC-5.0)
Stats Elevation 30 ft / 9 m (AMSL)
Location 19.144779° -104.558631°
Runways 1
Magnetic Variation 6.584° E

METAR

Not found

TAF

TAF MMZO 211652Z 2118/2218 23015KT P6SM SKC FM220300 00000KT P6SM SKC

Decode

Departure Runways

ID Width Length Bearing (true) Bearing (mag) Surface Threshold Offset Overrun Length
10 148 ft / 45 m 7,214 ft / 2,199 m 106.21° 99.63° Asphalt 0 ft / 0 m 200 ft / 61 m
28 148 ft / 45 m 7,214 ft / 2,199 m 286.22° 279.64° Asphalt 0 ft / 0 m 200 ft / 61 m

MMPR

Details ICAO MMPR (PVR)
Name LICENCIADO GUSTAVO DIAZ ORDAZ INTL
Region Mexico
Timezone America/Mexico_City (UTC-5.0)
Stats Elevation 23 ft / 7 m (AMSL)
Location 20.680069° -105.254153°
Runways 1
Magnetic Variation 6.847° E

METAR

MMPR 220349Z 00000KT 12SM SKC 26/23 A2986

Decode

TAF

TAF MMPR 212311Z 2200/2306 24010KT P6SM SKC TX31/2221Z TN20/2213Z FM220600 00000KT P6SM SKC FM221200 03005KT P6SM SCT025 FM221800 24010KT P6SM SKC FM230300 28005KT P6SM SKC

Decode

Destination Runways

ID Width Length Bearing (true) Bearing (mag) Surface Threshold Offset Overrun Length
04 148 ft / 45 m 10,221 ft / 3,116 m 47.05° 40.20° Asphalt 0 ft / 0 m 185 ft / 56 m
22 148 ft / 45 m 10,221 ft / 3,116 m 227.06° 220.21° Asphalt 0 ft / 0 m 185 ft / 56 m

Popular Alternatives